Time;durP1;ratioP1;P1;durP2;ratioP2;P2;SDS_P1;SDS_P2;PMS_P1;PMS_P2;Temp;Humidity;BMP_temperature;BMP_pressure;BME280_temperature;BME280_humidity;BME280_pressure;Samples;Min_cycle;Max_cycle;Signal;HPM_P1;HPM_P2
2023/03/02 00:01:49;;;;;;;1.20;1.20;;;;;;;1.20;66.54;102374.19;5027779;28;20146;-60
2023/03/02 00:04:26;;;;;;;1.27;1.27;;;;;;;0.54;69.52;102368.09;5026640;28;20062;-61
2023/03/02 00:06:57;;;;;;;1.30;1.30;;;;;;;0.78;67.98;102372.31;5026673;28;20036;-59
2023/03/02 00:09:22;;;;;;;1.10;1.10;;;;;;;0.79;66.99;102370.47;5028261;28;20470;-62
2023/03/02 00:11:49;;;;;;;1.20;1.20;;;;;;;0.63;67.90;102367.34;5026797;28;20068;-58
2023/03/02 00:14:14;;;;;;;1.30;1.30;;;;;;;0.59;68.29;102373.97;5031501;28;20026;-62
2023/03/02 00:16:39;;;;;;;1.10;1.10;;;;;;;0.70;67.95;102368.53;5024401;28;20032;-59
2023/03/02 00:19:05;;;;;;;1.30;1.30;;;;;;;0.47;69.39;102371.31;5027886;28;20029;-62
2023/03/02 00:21:31;;;;;;;1.25;1.25;;;;;;;0.27;70.22;102366.72;5029388;28;20196;-63
2023/03/02 00:23:56;;;;;;;1.48;1.40;;;;;;;0.25;70.19;102368.66;5028104;28;20029;-58
2023/03/02 00:26:21;;;;;;;1.25;1.25;;;;;;;0.07;71.62;102373.75;5030254;28;20109;-60
2023/03/02 00:28:47;;;;;;;1.20;1.20;;;;;;;-0.09;72.45;102374.13;5026528;28;20025;-63
2023/03/02 00:31:12;;;;;;;1.20;1.20;;;;;;;0.20;70.91;102365.47;5025727;28;20040;-61
2023/03/02 00:33:37;;;;;;;1.20;1.20;;;;;;;0.08;71.63;102375.44;5026419;28;20551;-56
2023/03/02 00:36:03;;;;;;;1.30;1.30;;;;;;;-0.02;72.14;102377.19;5026649;28;20036;-61
2023/03/02 00:38:28;;;;;;;1.30;1.30;;;;;;;0.11;71.88;102379.75;5025919;28;20559;-59
2023/03/02 00:40:54;;;;;;;1.30;1.30;;;;;;;-0.14;72.60;102373.63;5027832;28;20088;-62
2023/03/02 00:43:21;;;;;;;1.20;1.20;;;;;;;-0.03;72.26;102384.44;5027697;28;20018;-62
2023/03/02 00:45:47;;;;;;;1.20;1.20;;;;;;;0.15;71.70;102378.50;5026794;28;20048;-62
2023/03/02 00:48:12;;;;;;;1.20;1.20;;;;;;;0.40;70.65;102370.09;5028809;28;20025;-60
2023/03/02 00:50:40;;;;;;;1.10;1.10;;;;;;;0.26;71.17;102367.69;5026871;28;20060;-62
2023/03/02 00:53:07;;;;;;;1.30;1.30;;;;;;;0.25;71.11;102360.56;5027003;28;20029;-61
2023/03/02 00:55:33;;;;;;;1.35;1.30;;;;;;;0.28;71.17;102365.72;5027384;28;20028;-59
2023/03/02 00:57:59;;;;;;;1.10;1.10;;;;;;;0.15;72.04;102370.41;5027233;28;20441;-62
2023/03/02 01:00:27;;;;;;;1.27;1.27;;;;;;;0.16;71.90;102372.13;5026497;28;20168;-62
2023/03/02 01:02:52;;;;;;;;;;;;;;;0.17;71.40;102373.84;5027539;28;20021;-62
2023/03/02 01:05:17;;;;;;;1.37;1.37;;;;;;;-0.05;72.75;102370.19;5024729;28;19925;-61
2023/03/02 01:07:43;;;;;;;1.20;1.20;;;;;;;0.07;72.54;102367.47;5025704;28;20112;-61
2023/03/02 01:10:09;;;;;;;1.10;1.10;;;;;;;0.10;72.59;102367.22;5030702;28;20040;-61
2023/03/02 01:12:34;;;;;;;1.23;1.23;;;;;;;0.02;73.46;102367.00;5026146;28;20033;-59
2023/03/02 01:14:59;;;;;;;1.20;1.20;;;;;;;0.01;73.86;102363.44;5026607;28;20408;-62
2023/03/02 01:17:25;;;;;;;1.20;1.20;;;;;;;0.17;72.72;102352.22;5031151;28;20034;-62
2023/03/02 01:19:51;;;;;;;1.30;1.30;;;;;;;0.11;73.00;102363.56;5028781;28;20033;-62
2023/03/02 01:22:18;;;;;;;1.27;1.27;;;;;;;0.37;71.92;102358.69;5030443;28;20029;-61
2023/03/02 01:24:43;;;;;;;1.13;1.13;;;;;;;0.22;72.79;102350.88;5031098;28;20381;-61
2023/03/02 01:27:09;;;;;;;1.33;1.30;;;;;;;0.06;73.81;102360.38;5030484;28;20175;-62
2023/03/02 01:29:35;;;;;;;1.30;1.30;;;;;;;0.27;73.04;102358.59;5033735;28;20065;-62
2023/03/02 01:32:01;;;;;;;1.20;1.20;;;;;;;0.27;73.04;102353.19;5028998;28;20034;-61
2023/03/02 01:34:26;;;;;;;1.33;1.23;;;;;;;0.12;74.12;102351.75;5034198;28;20041;-60
2023/03/02 01:36:51;;;;;;;1.33;1.33;;;;;;;-0.20;75.89;102360.63;5029254;28;20029;-62
2023/03/02 01:39:16;;;;;;;1.30;1.30;;;;;;;-0.03;75.02;102349.31;5030818;28;20021;-58
2023/03/02 01:41:44;;;;;;;1.30;1.30;;;;;;;0.16;74.85;102355.94;5030156;28;20116;-60
2023/03/02 01:44:40;;;;;;;1.30;1.30;;;;;;;-0.09;75.91;102352.53;5029315;28;20127;-60
2023/03/02 01:47:30;;;;;;;1.30;1.30;;;;;;;-0.03;76.41;102341.22;5034456;28;20037;-62
2023/03/02 01:50:00;;;;;;;1.30;1.30;;;;;;;0.11;76.40;102342.78;5029311;28;20040;-60
2023/03/02 01:52:28;;;;;;;1.25;1.25;;;;;;;0.01;77.18;102338.28;5030487;28;20040;-62
2023/03/02 01:54:56;;;;;;;1.40;1.40;;;;;;;-0.17;78.41;102341.47;5027398;28;20079;-61
2023/03/02 01:57:26;;;;;;;1.45;1.45;;;;;;;-0.17;79.27;102340.63;5029324;28;20593;-61
2023/03/02 01:59:58;;;;;;;1.30;1.30;;;;;;;0.08;78.17;102334.94;5033548;28;20033;-61
2023/03/02 02:02:24;;;;;;;1.33;1.33;;;;;;;-0.20;79.76;102339.03;5029571;28;20032;-62
2023/03/02 02:04:53;;;;;;;1.60;1.50;;;;;;;0.09;79.73;102327.69;5029043;28;20369;-62
2023/03/02 02:07:18;;;;;;;1.30;1.30;;;;;;;-0.09;80.58;102333.63;5028303;28;20025;-57
2023/03/02 02:09:48;;;;;;;1.40;1.40;;;;;;;-0.05;82.15;102328.81;5029264;28;20021;-62
2023/03/02 02:12:20;;;;;;;1.60;1.50;;;;;;;-0.13;82.88;102332.16;5028932;28;20036;-62
2023/03/02 02:14:47;;;;;;;1.70;1.60;;;;;;;-0.50;85.74;102336.09;5030082;28;20083;-62
2023/03/02 02:17:14;;;;;;;1.50;1.50;;;;;;;0.18;83.74;102326.94;5027962;28;20041;-62
2023/03/02 02:19:53;;;;;;;1.60;1.50;;;;;;;-0.02;85.42;102329.41;5029254;28;20034;-62
2023/03/02 02:22:32;;;;;;;1.63;1.52;;;;;;;0.10;86.29;102322.19;5029439;28;20713;-59
2023/03/02 02:25:02;;;;;;;1.95;1.85;;;;;;;-0.12;88.74;102327.59;5028739;28;20121;-61
2023/03/02 02:27:32;;;;;;;1.80;1.70;;;;;;;-0.11;89.30;102319.38;5027293;28;20040;-62
2023/03/02 02:29:59;;;;;;;2.00;1.90;;;;;;;-0.22;90.83;102324.78;5032744;28;20022;-59
2023/03/02 02:32:27;;;;;;;2.03;1.80;;;;;;;-0.01;90.62;102312.22;5042094;28;20048;-62
2023/03/02 02:34:58;;;;;;;2.08;1.98;;;;;;;0.11;90.50;102320.34;5019990;28;20547;-61
2023/03/02 02:37:47;;;;;;;2.03;1.92;;;;;;;-0.23;92.88;102317.66;5027937;28;20017;-61
2023/03/02 02:40:51;;;;;;;1.80;1.70;;;;;;;0.09;93.11;102306.06;5032299;28;20034;-62
2023/03/02 02:43:19;;;;;;;1.90;1.80;;;;;;;-0.21;94.51;102315.69;5028566;28;20030;-62
2023/03/02 02:45:46;;;;;;;2.30;2.20;;;;;;;-0.34;96.57;102313.16;5032615;28;20045;-60
2023/03/02 02:48:19;;;;;;;1.85;1.75;;;;;;;-0.01;95.58;102311.38;5079952;23;20063;-59
2023/03/02 02:50:46;;;;;;;2.17;2.08;;;;;;;-0.03;95.67;102302.53;5045517;28;20056;-60
2023/03/02 02:53:16;;;;;;;2.22;2.13;;;;;;;0.08;96.51;102299.81;5047772;28;20038;-58
2023/03/02 02:55:41;;;;;;;2.05;1.95;;;;;;;-0.09;97.04;102301.22;5048708;28;20052;-56
2023/03/02 02:58:38;;;;;;;2.28;2.17;;;;;;;-0.23;98.62;102309.56;5045916;28;20075;-58
2023/03/02 03:01:03;;;;;;;2.00;1.90;;;;;;;-0.03;97.61;102298.00;5047930;28;20491;-59
2023/03/02 03:03:33;;;;;;;2.38;2.28;;;;;;;-0.02;98.09;102293.47;5049029;28;20017;-60
2023/03/02 03:06:01;;;;;;;2.20;2.10;;;;;;;0.16;98.45;102291.09;5046164;28;20025;-59
2023/03/02 03:08:42;;;;;;;2.35;2.25;;;;;;;-0.11;99.42;102302.31;5045691;28;20590;-60
2023/03/02 03:11:08;;;;;;;2.20;2.10;;;;;;;0.08;98.52;102293.56;5048521;28;20060;-60
2023/03/02 03:13:34;;;;;;;2.13;2.03;;;;;;;0.02;99.37;102300.31;5047111;28;20444;-59
2023/03/02 03:16:02;;;;;;;2.00;1.90;;;;;;;-0.08;100.00;102299.38;5048133;28;20025;-59
2023/03/02 03:18:30;;;;;;;2.25;2.15;;;;;;;-0.22;100.00;102303.19;5047194;28;20185;-60
2023/03/02 03:20:56;;;;;;;2.20;2.10;;;;;;;-0.20;100.00;102297.66;5047184;28;20108;-60
2023/03/02 03:23:22;;;;;;;2.20;2.10;;;;;;;0.02;100.00;102288.66;5048354;28;20029;-58
2023/03/02 03:25:47;;;;;;;2.08;1.98;;;;;;;-0.12;100.00;102287.94;5048397;28;20032;-59
2023/03/02 03:28:12;;;;;;;2.00;1.90;;;;;;;-0.13;100.00;102286.25;5046027;28;20098;-60
2023/03/02 03:30:38;;;;;;;2.45;2.35;;;;;;;-0.29;100.00;102297.44;5047696;28;20083;-60
2023/03/02 03:33:03;;;;;;;2.30;2.20;;;;;;;-0.04;100.00;102284.63;5030163;28;20075;-56
2023/03/02 03:35:28;;;;;;;2.13;2.03;;;;;;;-0.14;100.00;102292.63;5045361;28;20036;-59
2023/03/02 03:37:54;;;;;;;2.22;2.13;;;;;;;-0.37;100.00;102294.47;5047107;28;20029;-62
2023/03/02 03:40:19;;;;;;;2.20;2.10;;;;;;;-0.14;100.00;102294.47;5047823;28;20407;-56
2023/03/02 03:42:45;;;;;;;2.20;2.10;;;;;;;-0.14;100.00;102295.31;5048046;28;20029;-59
2023/03/02 03:45:10;;;;;;;2.42;2.33;;;;;;;-0.23;100.00;102289.81;5047346;28;20122;-60
2023/03/02 03:47:36;;;;;;;2.20;2.10;;;;;;;-0.35;100.00;102292.53;5047453;28;20136;-59
2023/03/02 03:50:01;;;;;;;2.35;2.25;;;;;;;-0.47;100.00;102292.66;5047738;28;20031;-57
2023/03/02 03:52:29;;;;;;;2.20;2.10;;;;;;;-0.33;100.00;102293.25;5046075;28;20423;-59
2023/03/02 03:54:59;;;;;;;2.40;2.30;;;;;;;-0.46;100.00;102294.38;5046320;28;20024;-60
2023/03/02 03:57:26;;;;;;;2.40;2.30;;;;;;;-0.73;100.00;102298.28;5047749;28;20021;-59
2023/03/02 03:59:52;;;;;;;2.20;2.10;;;;;;;-0.35;100.00;102300.63;5047602;28;20029;-59
2023/03/02 04:02:17;;;;;;;2.70;2.50;;;;;;;-0.40;100.00;102291.19;5047299;28;20866;-59
2023/03/02 04:04:44;;;;;;;2.40;2.30;;;;;;;-0.16;100.00;102294.56;5045703;28;20031;-60
2023/03/02 04:07:10;;;;;;;1.98;1.88;;;;;;;-0.08;100.00;102284.03;5046427;28;20032;-60
2023/03/02 04:09:36;;;;;;;2.20;2.10;;;;;;;-0.18;100.00;102291.16;5046771;28;20036;-59
2023/03/02 04:12:02;;;;;;;2.30;2.20;;;;;;;-0.31;100.00;102295.81;5034148;28;20112;-60
2023/03/02 04:14:29;;;;;;;2.33;2.22;;;;;;;-0.54;100.00;102292.28;5039843;28;20167;-60
2023/03/02 04:16:54;;;;;;;2.20;2.10;;;;;;;-0.38;100.00;102294.63;5045901;28;20370;-60
2023/03/02 04:19:20;;;;;;;2.45;2.35;;;;;;;-0.48;100.00;102290.94;5039313;28;20104;-60
2023/03/02 04:21:49;;;;;;;2.20;2.10;;;;;;;-0.46;100.00;102299.75;5040848;28;20029;-59
2023/03/02 04:24:16;;;;;;;2.38;2.28;;;;;;;-0.65;100.00;102300.41;5046854;28;20029;-60
2023/03/02 04:26:42;;;;;;;2.50;2.40;;;;;;;-0.86;100.00;102295.72;5029590;28;20038;-58
2023/03/02 04:29:09;;;;;;;2.60;2.50;;;;;;;-1.06;100.00;102308.06;5047462;28;20025;-61
2023/03/02 04:31:35;;;;;;;2.40;2.30;;;;;;;-1.22;100.00;102307.50;5046874;28;20036;-60
2023/03/02 04:34:02;;;;;;;2.40;2.30;;;;;;;-1.35;100.00;102309.44;5039660;28;20025;-59
2023/03/02 04:36:28;;;;;;;2.58;2.47;;;;;;;-1.44;100.00;102311.00;5045894;28;20061;-60
2023/03/02 04:38:54;;;;;;;2.38;2.28;;;;;;;-1.45;100.00;102309.28;5046984;28;20060;-60
2023/03/02 04:41:19;;;;;;;2.50;2.40;;;;;;;-1.36;100.00;102305.91;5047177;28;20021;-55
2023/03/02 04:43:45;;;;;;;2.40;2.30;;;;;;;-1.48;100.00;102305.94;5046141;28;20025;-60
2023/03/02 04:46:17;;;;;;;2.70;2.60;;;;;;;-1.44;100.00;102304.75;5046371;28;20025;-60
2023/03/02 04:48:42;;;;;;;2.50;2.40;;;;;;;-1.16;100.00;102298.13;5035884;28;20045;-54
2023/03/02 04:51:15;;;;;;;2.00;1.90;;;;;;;-1.08;100.00;102298.34;5046822;28;20091;-59
2023/03/02 04:53:41;;;;;;;2.63;2.53;;;;;;;-1.29;100.00;102295.50;5049051;28;20321;-60
2023/03/02 04:56:06;;;;;;;2.20;2.10;;;;;;;-0.65;100.00;102297.69;5051541;28;20091;-57
2023/03/02 04:58:31;;;;;;;2.20;2.10;;;;;;;-0.67;100.00;102295.09;5050367;28;20025;-56
2023/03/02 05:01:01;;;;;;;2.33;2.22;;;;;;;-0.46;100.00;102295.22;5051321;28;20112;-60
2023/03/02 05:03:26;;;;;;;2.40;2.20;;;;;;;-0.79;100.00;102299.63;5049032;28;20171;-62
2023/03/02 05:05:52;;;;;;;2.58;2.47;;;;;;;-0.38;100.00;102294.63;5048329;28;20115;-62
2023/03/02 05:08:17;;;;;;;2.40;2.30;;;;;;;-0.59;100.00;102295.34;5049099;28;20025;-56
2023/03/02 05:10:42;;;;;;;2.10;2.00;;;;;;;-0.62;100.00;102295.59;5050175;28;20116;-61
2023/03/02 05:13:08;;;;;;;2.65;2.50;;;;;;;-0.77;100.00;102296.81;5050159;28;20082;-62
2023/03/02 05:15:35;;;;;;;2.50;2.40;;;;;;;-0.97;100.00;102301.06;5031781;28;20060;-61
2023/03/02 05:18:03;;;;;;;2.03;1.92;;;;;;;-0.57;100.00;102300.63;5050263;28;20029;-61
2023/03/02 05:20:30;;;;;;;2.50;2.40;;;;;;;-0.34;100.00;102301.50;5050074;28;20032;-61
2023/03/02 05:22:58;;;;;;;2.30;2.20;;;;;;;-0.48;100.00;102297.19;5049626;28;20494;-61
2023/03/02 05:25:25;;;;;;;2.28;2.17;;;;;;;-0.59;100.00;102300.75;5050187;28;20108;-61
2023/03/02 05:27:51;;;;;;;2.90;2.70;;;;;;;-0.87;100.00;102301.22;5049671;28;20467;-60
2023/03/02 05:30:17;;;;;;;2.58;2.47;;;;;;;-0.44;100.00;102304.06;5050630;28;20104;-58
2023/03/02 05:32:43;;;;;;;2.10;2.00;;;;;;;-0.69;100.00;102305.16;5049780;28;20037;-62
2023/03/02 05:35:08;;;;;;;2.53;2.42;;;;;;;-0.73;100.00;102314.47;5046904;28;20032;-59
2023/03/02 05:37:34;;;;;;;3.00;2.80;;;;;;;-0.95;100.00;102296.44;5047469;28;20377;-60
2023/03/02 05:39:59;;;;;;;2.53;2.42;;;;;;;-0.92;100.00;102298.88;5050241;28;20021;-61
2023/03/02 05:42:25;;;;;;;2.75;2.55;;;;;;;-0.43;100.00;102286.88;5049530;28;20029;-56
2023/03/02 05:44:50;;;;;;;2.55;2.45;;;;;;;-0.75;100.00;102299.41;5048607;28;20541;-62
2023/03/02 05:47:15;;;;;;;2.50;2.40;;;;;;;-0.65;100.00;102303.94;5049687;28;20056;-61
2023/03/02 05:49:40;;;;;;;2.67;2.47;;;;;;;-1.03;100.00;102300.69;5046513;28;20088;-62
2023/03/02 05:52:06;;;;;;;2.58;2.45;;;;;;;-0.81;100.00;102300.75;5049477;28;20079;-61
2023/03/02 05:54:31;;;;;;;2.58;2.40;;;;;;;-0.69;100.00;102293.53;5048309;28;20124;-56
2023/03/02 05:56:57;;;;;;;2.70;2.60;;;;;;;-0.34;100.00;102294.25;5029983;28;20022;-59
2023/03/02 05:59:22;;;;;;;3.00;2.80;;;;;;;-1.10;100.00;102293.09;5030836;28;20028;-62
2023/03/02 06:01:48;;;;;;;2.42;2.33;;;;;;;-0.75;100.00;102294.88;5050096;28;20029;-62
2023/03/02 06:04:14;;;;;;;3.00;2.80;;;;;;;-0.82;100.00;102288.22;5048549;28;20009;-61
2023/03/02 06:06:39;;;;;;;2.47;2.38;;;;;;;-0.76;100.00;102292.28;5048300;28;20445;-61
2023/03/02 06:09:04;;;;;;;2.53;2.42;;;;;;;-0.84;100.00;102291.06;5049487;28;20032;-61
2023/03/02 06:11:29;;;;;;;2.45;2.35;;;;;;;-0.85;100.00;102292.03;5047698;28;20021;-62
2023/03/02 06:13:55;;;;;;;2.25;2.15;;;;;;;-1.11;100.00;102294.09;5047817;28;20048;-61
2023/03/02 06:16:20;;;;;;;2.45;2.28;;;;;;;-1.25;100.00;102294.28;5049220;28;20020;-62
2023/03/02 06:18:45;;;;;;;2.88;2.67;;;;;;;-1.18;100.00;102295.50;5049699;28;20387;-61
2023/03/02 06:21:11;;;;;;;2.10;2.00;;;;;;;-0.75;100.00;102294.88;5047853;28;20025;-61
2023/03/02 06:23:36;;;;;;;2.58;2.45;;;;;;;-0.80;100.00;102302.47;5048204;28;20333;-58
2023/03/02 06:26:10;;;;;;;2.30;2.20;;;;;;;-0.86;100.00;102297.56;5048038;28;20032;-61
2023/03/02 06:28:35;;;;;;;2.85;2.65;;;;;;;-0.69;100.00;102288.97;5047995;28;20337;-58
2023/03/02 06:31:01;;;;;;;3.10;2.90;;;;;;;-1.07;100.00;102305.47;5045480;28;20055;-62
2023/03/02 06:33:26;;;;;;;2.60;2.47;;;;;;;-0.89;100.00;102297.78;5048401;28;20537;-57
2023/03/02 06:35:51;;;;;;;2.40;2.30;;;;;;;-1.00;100.00;102309.41;5047333;28;20037;-61
2023/03/02 06:38:17;;;;;;;3.00;2.80;;;;;;;-1.31;100.00;102314.50;5048290;28;20057;-62
2023/03/02 06:40:42;;;;;;;2.50;2.40;;;;;;;-1.10;100.00;102313.81;5048121;28;20025;-62
2023/03/02 06:43:08;;;;;;;2.78;2.58;;;;;;;-0.89;100.00;102312.13;5033966;28;20091;-59
2023/03/02 06:45:34;;;;;;;2.40;2.30;;;;;;;-0.94;100.00;102311.63;5038976;28;20080;-61
2023/03/02 06:48:00;;;;;;;2.85;2.65;;;;;;;-0.72;100.00;102309.94;5048539;28;20041;-61
2023/03/02 06:50:27;;;;;;;2.40;2.30;;;;;;;-0.84;100.00;102318.03;5047445;28;20033;-61
2023/03/02 06:52:52;;;;;;;2.35;2.25;;;;;;;-0.89;100.00;102319.38;5043697;28;20040;-62
2023/03/02 06:55:17;;;;;;;2.50;2.38;;;;;;;-0.84;100.00;102317.16;5029506;28;20033;-61
2023/03/02 06:57:42;;;;;;;2.95;2.75;;;;;;;-0.93;100.00;102320.56;5038213;28;20024;-61
2023/03/02 07:00:16;;;;;;;3.00;2.80;;;;;;;-0.97;100.00;102327.19;5016474;28;20041;-61
2023/03/02 07:02:45;;;;;;;3.10;2.90;;;;;;;-1.03;100.00;102325.81;5044296;28;20029;-61
2023/03/02 07:05:11;;;;;;;2.90;2.70;;;;;;;-0.82;100.00;102326.00;5046356;28;20040;-61
2023/03/02 07:07:36;;;;;;;2.85;2.65;;;;;;;-0.83;100.00;102325.13;5045777;28;20616;-62
2023/03/02 07:10:03;;;;;;;2.15;2.05;;;;;;;-0.55;100.00;102328.38;5049020;28;20021;-61
2023/03/02 07:12:28;;;;;;;2.35;2.25;;;;;;;-0.42;100.00;102325.53;5029098;28;20406;-62
2023/03/02 07:14:53;;;;;;;2.55;2.42;;;;;;;-0.45;100.00;102329.34;5029785;28;20108;-61
2023/03/02 07:17:18;;;;;;;2.55;2.45;;;;;;;-0.65;100.00;102322.84;5044350;28;20039;-58
2023/03/02 07:19:44;;;;;;;2.55;2.40;;;;;;;-0.17;100.00;102330.66;5047949;28;20041;-61
2023/03/02 07:22:09;;;;;;;2.30;2.20;;;;;;;-0.33;100.00;102330.19;5048284;28;20024;-61
2023/03/02 07:24:34;;;;;;;2.40;2.30;;;;;;;-0.18;100.00;102330.81;5047987;28;20025;-61
2023/03/02 07:27:00;;;;;;;2.60;2.50;;;;;;;-0.25;100.00;102338.53;5047806;28;20037;-61
2023/03/02 07:29:25;;;;;;;2.55;2.42;;;;;;;-0.03;100.00;102329.56;5048885;28;20044;-62
2023/03/02 07:31:55;;;;;;;2.80;2.60;;;;;;;-0.06;99.86;102330.66;5046792;28;20193;-61
2023/03/02 07:34:24;;;;;;;2.88;2.67;;;;;;;0.41;97.83;102334.00;5047021;28;20036;-61
2023/03/02 07:36:49;;;;;;;;;;;;;;;0.24;97.76;102335.38;5046852;28;20047;-60
2023/03/02 07:39:14;;;;;;;2.53;2.42;;;;;;;0.14;97.00;102330.88;5045798;28;20008;-61
2023/03/02 07:41:39;;;;;;;2.60;2.50;;;;;;;-0.03;99.39;102326.84;5046165;28;20079;-61
2023/03/02 07:44:05;;;;;;;2.40;2.30;;;;;;;0.24;97.68;102323.72;5046830;28;20040;-62
2023/03/02 07:46:30;;;;;;;2.40;2.30;;;;;;;0.29;97.09;102320.63;5046858;28;20032;-60
2023/03/02 07:48:57;;;;;;;2.22;2.13;;;;;;;-0.15;99.06;102327.84;5046283;28;20041;-61
2023/03/02 07:51:23;;;;;;;2.30;2.20;;;;;;;0.28;97.60;102330.59;5046122;28;20037;-60
2023/03/02 07:53:48;;;;;;;2.13;2.03;;;;;;;0.25;97.26;102330.81;5047627;28;20029;-57
2023/03/02 07:56:13;;;;;;;2.22;2.13;;;;;;;0.43;96.16;102328.44;5047918;28;20037;-63
2023/03/02 07:58:39;;;;;;;2.40;2.30;;;;;;;0.42;96.92;102334.84;5046822;28;20024;-61
2023/03/02 08:01:04;;;;;;;2.42;2.33;;;;;;;0.52;96.17;102320.44;5046389;28;20098;-60
2023/03/02 08:03:29;;;;;;;2.58;2.45;;;;;;;0.51;97.19;102331.38;5047295;28;20067;-62
2023/03/02 08:05:55;;;;;;;2.40;2.30;;;;;;;0.60;95.34;102332.44;5044536;28;20025;-62
2023/03/02 08:08:20;;;;;;;2.40;2.30;;;;;;;0.49;96.33;102333.34;5047388;28;20025;-61
2023/03/02 08:10:45;;;;;;;2.80;2.60;;;;;;;0.59;96.05;102331.59;5047476;28;20021;-62
2023/03/02 08:13:11;;;;;;;1.90;1.80;;;;;;;1.03;92.66;102326.94;5028029;28;20031;-62
2023/03/02 08:15:36;;;;;;;2.25;2.15;;;;;;;1.28;90.95;102325.69;5045382;28;20107;-60
2023/03/02 08:18:01;;;;;;;2.28;2.17;;;;;;;1.01;91.32;102321.69;5046857;28;20029;-62
2023/03/02 08:20:26;;;;;;;2.58;2.47;;;;;;;0.90;93.69;102319.00;5045267;28;20476;-61
2023/03/02 08:22:52;;;;;;;2.13;2.03;;;;;;;1.48;90.31;102318.53;5045303;28;20036;-60
2023/03/02 08:25:17;;;;;;;1.95;1.85;;;;;;;1.44;90.32;102323.34;5045407;28;20052;-62
2023/03/02 08:27:44;;;;;;;2.40;2.30;;;;;;;1.71;91.20;102330.00;5044130;28;20309;-61
2023/03/02 08:30:11;;;;;;;2.20;2.10;;;;;;;2.34;86.32;102333.34;5027002;28;20510;-58
2023/03/02 08:32:37;;;;;;;1.90;1.80;;;;;;;2.48;84.87;102323.91;5043980;28;20036;-62
2023/03/02 08:35:03;;;;;;;2.17;2.08;;;;;;;2.50;82.71;102324.66;5037665;28;20075;-59
2023/03/02 08:37:28;;;;;;;1.90;1.80;;;;;;;2.67;81.36;102320.34;5028094;28;20021;-62
2023/03/02 08:39:54;;;;;;;1.83;1.73;;;;;;;2.86;82.01;102318.50;5047055;28;20036;-63
2023/03/02 08:42:19;;;;;;;1.90;1.80;;;;;;;2.95;80.58;102322.22;5046522;28;20063;-60
2023/03/02 08:44:44;;;;;;;1.92;1.83;;;;;;;2.76;78.99;102316.78;5045870;28;20025;-63
2023/03/02 08:47:10;;;;;;;2.00;1.90;;;;;;;3.02;78.85;102314.34;5046639;28;20036;-63
2023/03/02 08:49:36;;;;;;;1.98;1.85;;;;;;;2.98;79.20;102318.34;5044311;28;20462;-64
2023/03/02 08:52:02;;;;;;;1.80;1.70;;;;;;;3.46;77.14;102310.09;5045962;28;20033;-70
2023/03/02 08:54:27;;;;;;;1.90;1.80;;;;;;;4.18;76.31;102315.75;5044287;28;20025;-67
2023/03/02 08:56:53;;;;;;;1.50;1.40;;;;;;;4.38;75.35;102306.44;5044762;28;20036;-62
2023/03/02 08:59:19;;;;;;;1.67;1.58;;;;;;;4.66;73.77;102296.31;5043399;28;20033;-62
2023/03/02 09:01:44;;;;;;;1.50;1.45;;;;;;;5.02;70.17;102301.72;5042202;28;20034;-65
2023/03/02 09:04:10;;;;;;;1.20;1.20;;;;;;;5.89;66.27;102303.44;5045417;28;20108;-68
2023/03/02 09:06:38;;;;;;;1.42;1.33;;;;;;;6.44;64.54;102297.50;5043224;28;20029;-67
2023/03/02 09:09:04;;;;;;;1.20;1.20;;;;;;;6.75;63.90;102300.44;5045452;28;20021;-68
2023/03/02 09:11:30;;;;;;;1.30;1.30;;;;;;;7.07;60.42;102294.09;5045309;28;20078;-66
2023/03/02 09:13:55;;;;;;;1.30;1.30;;;;;;;7.41;58.54;102299.34;5046644;28;20029;-67
2023/03/02 09:16:23;;;;;;;1.30;1.30;;;;;;;7.72;57.87;102304.91;5044301;28;20032;-69
2023/03/02 09:18:48;;;;;;;1.30;1.30;;;;;;;7.99;57.09;102291.78;5029536;28;20022;-66
2023/03/02 09:21:13;;;;;;;1.10;1.10;;;;;;;8.32;56.42;102300.69;5034402;28;20479;-69
2023/03/02 09:23:39;;;;;;;1.10;1.10;;;;;;;8.82;53.42;102289.25;5044752;28;20033;-69
2023/03/02 09:26:05;;;;;;;1.20;1.20;;;;;;;8.47;53.68;102306.28;5044639;28;20029;-64
2023/03/02 09:28:30;;;;;;;1.10;1.10;;;;;;;8.80;51.78;102296.78;5045021;28;20032;-69
2023/03/02 09:30:58;;;;;;;1.10;1.10;;;;;;;9.28;52.35;102297.38;5045927;28;20048;-66
2023/03/02 09:33:24;;;;;;;1.00;1.00;;;;;;;9.65;50.36;102298.34;5043942;28;20366;-63
2023/03/02 09:35:50;;;;;;;1.10;1.10;;;;;;;9.96;48.11;102300.03;5044028;28;20299;-78
2023/03/02 09:38:18;;;;;;;1.00;1.00;;;;;;;10.67;47.93;102294.75;5048468;28;20148;-73
2023/03/02 09:40:52;;;;;;;1.00;1.00;;;;;;;10.11;47.81;102292.63;5049156;28;20024;-77
2023/03/02 09:43:23;;;;;;;0.95;0.95;;;;;;;9.58;47.50;102289.19;5049472;28;20183;-65
2023/03/02 09:46:04;;;;;;;0.90;0.90;;;;;;;9.88;46.97;102293.63;5048327;28;20372;-60
2023/03/02 09:48:47;;;;;;;0.90;0.90;;;;;;;10.03;46.12;102293.56;5036050;28;20052;-72
2023/03/02 09:51:31;;;;;;;0.88;0.88;;;;;;;11.34;45.97;102284.13;5048891;28;20106;-74
2023/03/02 09:54:13;;;;;;;0.90;0.90;;;;;;;11.67;41.80;102278.84;5046674;28;20082;-71
2023/03/02 09:56:43;;;;;;;0.80;0.80;;;;;;;10.87;43.24;102288.41;5029042;28;20048;-68
2023/03/02 09:59:14;;;;;;;0.70;0.70;;;;;;;10.77;43.46;102292.53;5040932;28;20028;-70
2023/03/02 10:01:47;;;;;;;0.80;0.80;;;;;;;10.67;42.02;102281.88;5045917;28;20082;-66
2023/03/02 10:04:26;;;;;;;0.70;0.70;;;;;;;11.51;42.23;102281.09;5047177;28;20025;-67
2023/03/02 10:06:56;;;;;;;0.85;0.85;;;;;;;11.62;41.29;102284.13;5045182;28;20032;-68
2023/03/02 10:09:21;;;;;;;0.80;0.80;;;;;;;12.50;40.83;102286.19;5047239;28;20061;-72
2023/03/02 10:12:01;;;;;;;0.70;0.70;;;;;;;12.53;40.31;102286.66;5046429;28;20053;-71
2023/03/02 10:14:34;;;;;;;0.70;0.70;;;;;;;12.20;40.01;102289.28;5047683;28;20040;-71
2023/03/02 10:17:28;;;;;;;0.60;0.60;;;;;;;12.64;38.44;102291.53;5048162;28;20067;-70
2023/03/02 10:20:03;;;;;;;0.70;0.70;;;;;;;12.43;38.13;102284.28;5046692;28;20382;-62
2023/03/02 10:22:34;;;;;;;0.80;0.80;;;;;;;11.61;38.45;102287.94;5046684;28;20033;-70
2023/03/02 10:24:59;;;;;;;0.68;0.68;;;;;;;11.26;39.69;102287.06;5048172;28;20399;-66
2023/03/02 10:27:38;;;;;;;0.70;0.70;;;;;;;11.37;39.60;102283.75;5047373;28;20033;-67
2023/03/02 10:30:15;;;;;;;0.80;0.80;;;;;;;11.99;38.40;102287.50;5048120;28;20103;-69
2023/03/02 10:32:51;;;;;;;0.68;0.68;;;;;;;12.95;37.58;102282.66;5046738;28;20083;-70
2023/03/02 10:35:22;;;;;;;0.60;0.60;;;;;;;12.71;37.77;102281.38;5047463;28;20217;-70
2023/03/02 10:37:51;;;;;;;0.70;0.70;;;;;;;11.91;36.44;102282.16;5046604;28;20055;-70
2023/03/02 10:40:45;;;;;;;0.70;0.70;;;;;;;11.43;37.13;102277.44;5047094;28;20403;-67
2023/03/02 10:43:32;;;;;;;0.70;0.70;;;;;;;10.88;36.75;102276.38;5024754;28;20368;-64
2023/03/02 10:46:06;;;;;;;0.70;0.70;;;;;;;10.75;37.80;102276.25;5046529;28;20083;-71
2023/03/02 10:48:32;;;;;;;0.80;0.80;;;;;;;11.42;37.45;102264.72;5044720;28;20108;-62
2023/03/02 10:50:59;;;;;;;0.70;0.70;;;;;;;12.64;35.29;102276.91;5047122;28;20032;-69
2023/03/02 10:53:24;;;;;;;0.60;0.60;;;;;;;14.30;33.74;102266.44;5045210;28;20064;-72
2023/03/02 10:55:52;;;;;;;0.73;0.73;;;;;;;14.09;34.17;102272.28;5046701;28;20506;-61
2023/03/02 10:58:24;;;;;;;0.55;0.55;;;;;;;13.47;34.46;102266.31;5044818;28;20064;-71
2023/03/02 11:01:02;;;;;;;0.70;0.70;;;;;;;12.82;35.19;102256.97;5046272;28;20072;-71
2023/03/02 11:03:28;;;;;;;0.60;0.60;;;;;;;12.29;35.81;102257.75;5045880;28;20029;-63
2023/03/02 11:05:55;;;;;;;0.70;0.70;;;;;;;11.63;35.91;102261.03;5046631;28;20072;-62
2023/03/02 11:08:26;;;;;;;0.60;0.60;;;;;;;12.00;35.90;102267.19;5026894;28;20025;-70
2023/03/02 11:10:56;;;;;;;0.70;0.70;;;;;;;11.61;36.86;102265.06;5046680;28;20068;-67
2023/03/02 11:13:37;;;;;;;0.63;0.63;;;;;;;12.57;35.66;102256.75;5046129;28;20025;-68
2023/03/02 11:16:05;;;;;;;0.60;0.60;;;;;;;13.93;32.96;102252.34;5041140;28;20067;-66
2023/03/02 11:18:39;;;;;;;0.60;0.60;;;;;;;13.64;35.24;102256.53;5036214;28;20095;-62
2023/03/02 11:21:12;;;;;;;0.60;0.60;;;;;;;14.06;34.77;102256.16;5035837;28;20167;-69
2023/03/02 11:23:52;;;;;;;0.60;0.60;;;;;;;14.05;33.18;102251.69;5042044;28;21180;-71
2023/03/02 11:26:23;;;;;;;0.60;0.60;;;;;;;14.57;33.12;102253.34;5044750;28;20090;-60
2023/03/02 11:29:03;;;;;;;0.60;0.60;;;;;;;15.20;31.38;102242.16;5044724;28;20033;-70
2023/03/02 11:31:40;;;;;;;0.60;0.60;;;;;;;15.94;30.46;102254.19;5045364;28;20033;-70